This is the latest recevied weather packets stored in our database for station/object KF6YUA. If no packets are shown the sender has not sent any weather packets the latest 10 day(s).
| Time | Temp. | Humidity | Pressure | Rain* | Wind** | Luminosity | Snow |
|---|---|---|---|---|---|---|---|
| 1778012075 | 16.67° C | 76% | 1017.9 hPa | 0 mm | - | 191 W/m² | - |
| 1778011773 | 17.22° C | 76% | 1018 hPa | 0 mm | - | 187 W/m² | - |
| 1778011470 | 16.67° C | 76% | 1017.7 hPa | 0 mm | - | 232 W/m² | - |
| 1778011165 | 17.22° C | 76% | 1017.9 hPa | 0 mm | - | 230 W/m² | - |
| 1778010863 | 17.78° C | 75% | 1017.7 hPa | 0 mm | - | 237 W/m² | - |
| 1778010560 | 17.22° C | 77% | 1018 hPa | 0 mm | - | 253 W/m² | - |
| 1778010258 | 16.67° C | 77% | 1018 hPa | 0 mm | - | 257 W/m² | - |
| 1778009957 | 17.78° C | 76% | 1017.7 hPa | 0 mm | - | 224 W/m² | - |
| 1778009655 | 17.78° C | 75% | 1018.1 hPa | 0 mm | - | 289 W/m² | - |
| 1778009353 | 17.78° C | 73% | 1018 hPa | 0 mm | - | 414 W/m² | - |
| 1778009051 | 18.33° C | 74% | 1018.1 hPa | 0 mm | - | 816 W/m² | - |
| 1778008748 | 18.33° C | 75% | 1017.8 hPa | 0 mm | - | 645 W/m² | - |
| 1778008447 | 17.22° C | 78% | 1018 hPa | 0 mm | - | 650 W/m² | - |
| 1778008143 | 16.67° C | 79% | 1017.9 hPa | 0 mm | - | 630 W/m² | - |
| 1778007838 | 16.67° C | 81% | 1018.1 hPa | 0 mm | - | 751 W/m² | - |
| 1778007534 | 17.22° C | 80% | 1018.1 hPa | 0 mm | - | 278 W/m² | - |
| 1778007231 | 16.67° C | 81% | 1018.1 hPa | 0 mm | - | 267 W/m² | - |
| 1778006927 | 16.67° C | 79% | 1018 hPa | 0 mm | - | 253 W/m² | - |
| 1778006624 | 15.56° C | 80% | 1018.1 hPa | 0 mm | - | 264 W/m² | - |
| 1778006321 | 16.67° C | 77% | 1018.1 hPa | 0 mm | - | 268 W/m² | - |
| 1778006018 | 17.22° C | 77% | 1017.9 hPa | 0 mm | - | 345 W/m² | - |
| 1778005714 | 17.22° C | 76% | 1018 hPa | 0 mm | - | 294 W/m² | - |
| 1778005411 | 16.67° C | 76% | 1018.2 hPa | 0 mm | - | 395 W/m² | - |
| 1778005108 | 16.67° C | 78% | 1018.1 hPa | 0 mm | - | 372 W/m² | - |
| 1778004805 | 16.11° C | 78% | 1017.8 hPa | 0 mm | - | 322 W/m² | - |
* Rain latest hour (hover to see other rain measurements)
** Current wind speed in m/s (hover to see current wind gust speed)